Portada
METAR-TAF:

METAR-TAF

Aeroports :

Honiara, Guadalcanal, Illes Salomó

latitud: 09-25S, longitud: 160-03E, altitud: 8 m

Observació

L'informe es va fer fa 59 minuts, a les 21:00 UTC
Vent 4 kt del Sud
Temperatura 25°C
Humitat 89%
Pressió 1012 hPa
Visibilitat 10 km o més
Escasses núvols a una alçada de 1700 ft

METAR: AGGH 252100Z 18004KT 9999 FEW017 25/23 Q1012

Hora: 08:59 (21:59 UTC)

Pronòstic

L'informe es va fer fa 4 hores i 44 minuts, a les 17:15 UTC
Pronòstic vàlid del 25 a les 18 UTC al 26 a les 18 UTC
Vent 12 kt del Est/Nord-Est
Visibilitat: 1010 m
Escasses núvols a una alçada de 1600 ft
Núvols disperses a una alçada de 3000 ft

TAF: AGGH 251715Z 2518/2618 07012KT 9999 FEW016 SCT030 T 23 25 30 31 Q 1010 1012 1012 1010

Observacions i pronòstics meteorològics de més de 4000 aeroports (METAR i TAF).

Les estacions disponibles són els punts grocs i vermells al mapa.

Posi el ratolí al punt desitjat per veure el nom de l'estació.

Feu clic per veure les observacions i els pronòstics meteorològics.

Per canviar el mapa: feu clic els botons verds amb una creu de color negre per apropar; al botó verd amb un guió per allunyar la imatge; o en les fletxes verdes per a mapes adjacents.


METAR-TAF: